Terminal Aerodrome Forecast
Issued by NWS

Home | Current Version | Previous Version | Text Only | Print | Product List | Glossary Off
Versions: 1 2 3 4 5 6 7 8 9 10 11 12 13 14 15

000
FTUS43 KMPX 311643 AAA
TAFAXN
TAF AMD
KAXN 311643Z 3117/0112 31010G17KT P6SM SKC
     FM010000 30006KT P6SM SKC
     FM011100 22008KT P6SM SCT100=

USA.gov is the U.S. government's official web portal to all federal, state and local government web resources and services.